createdAt,value
2024-05-09T00:00:18.179Z,11.39
2024-05-09T00:00:39.180Z,11.38
2024-05-09T00:00:52.765Z,11.37
2024-05-09T00:01:04.968Z,11.37
2024-05-09T00:01:17.197Z,11.36
2024-05-09T00:01:29.349Z,11.36
2024-05-09T00:01:41.447Z,11.35
2024-05-09T00:01:53.547Z,11.36
2024-05-09T00:02:05.634Z,11.35
2024-05-09T00:02:17.763Z,11.34
2024-05-09T00:02:29.975Z,11.32
2024-05-09T00:02:42.452Z,11.30
2024-05-09T00:02:54.614Z,11.28
2024-05-09T00:03:10.870Z,11.25
2024-05-09T00:03:23.988Z,11.24
2024-05-09T00:03:36.172Z,11.21
2024-05-09T00:03:48.359Z,11.22
2024-05-09T00:04:00.503Z,11.22
2024-05-09T00:04:12.662Z,11.22
2024-05-09T00:04:24.793Z,11.23
2024-05-09T00:04:36.894Z,11.22
2024-05-09T00:04:49.054Z,11.23
2024-05-09T00:05:01.371Z,11.23
2024-05-09T00:05:13.834Z,11.23
2024-05-09T00:05:26.049Z,11.20
2024-05-09T00:05:38.720Z,11.21
2024-05-09T00:05:51.073Z,11.22
2024-05-09T00:06:03.431Z,11.20
2024-05-09T00:06:15.676Z,11.20
2024-05-09T00:06:27.796Z,11.23
2024-05-09T00:06:40.118Z,11.27
2024-05-09T00:06:52.171Z,11.28
2024-05-09T00:07:04.333Z,11.30
2024-05-09T00:07:16.393Z,11.30
2024-05-09T00:07:28.501Z,11.30
2024-05-09T00:07:40.613Z,11.29
2024-05-09T00:07:52.691Z,11.29
2024-05-09T00:08:05.375Z,11.29
2024-05-09T00:08:17.597Z,11.30
2024-05-09T00:08:29.842Z,11.29
2024-05-09T00:08:42.028Z,11.29
2024-05-09T00:08:54.112Z,11.29
2024-05-09T00:09:06.367Z,11.27
2024-05-09T00:09:18.391Z,11.28
2024-05-09T00:09:30.436Z,11.28
2024-05-09T00:09:42.487Z,11.26
2024-05-09T00:09:54.566Z,11.28
2024-05-09T00:10:09.210Z,11.27
2024-05-09T00:10:32.642Z,11.26
2024-05-09T00:10:48.096Z,11.29
2024-05-09T00:11:00.431Z,11.33
2024-05-09T00:11:15.553Z,11.36
2024-05-09T00:11:27.734Z,11.35
2024-05-09T00:11:40.330Z,11.35
2024-05-09T00:11:52.483Z,11.35
2024-05-09T00:12:04.819Z,11.33
2024-05-09T00:12:17.121Z,11.32
2024-05-09T00:12:29.253Z,11.32
2024-05-09T00:12:41.351Z,11.32
2024-05-09T00:12:53.377Z,11.29
2024-05-09T00:13:09.381Z,11.27
2024-05-09T00:13:21.803Z,11.28
2024-05-09T00:13:33.853Z,11.24
2024-05-09T00:13:47.128Z,11.25
2024-05-09T00:13:59.279Z,11.22
2024-05-09T00:14:11.507Z,11.21
2024-05-09T00:14:23.877Z,11.23
2024-05-09T00:14:36.075Z,11.22
2024-05-09T00:14:48.199Z,11.23
2024-05-09T00:15:00.343Z,11.24
2024-05-09T00:15:12.460Z,11.25
2024-05-09T00:15:24.539Z,11.27
2024-05-09T00:15:37.050Z,11.29
2024-05-09T00:15:49.308Z,11.30
2024-05-09T00:16:01.355Z,11.24
2024-05-09T00:16:13.486Z,11.21
2024-05-09T00:16:25.599Z,11.17
2024-05-09T00:16:37.652Z,11.17
2024-05-09T00:16:49.761Z,11.17
2024-05-09T00:17:01.890Z,11.15
2024-05-09T00:17:14.232Z,11.14
2024-05-09T00:17:26.484Z,11.14
2024-05-09T00:17:38.871Z,11.11
2024-05-09T00:17:51.303Z,11.09
2024-05-09T00:18:05.326Z,11.11
2024-05-09T00:18:18.278Z,11.14
2024-05-09T00:18:30.637Z,11.13
2024-05-09T00:18:42.831Z,11.09
2024-05-09T00:18:55.387Z,11.09
2024-05-09T00:19:07.657Z,11.08
2024-05-09T00:19:20.156Z,11.09
2024-05-09T00:19:32.441Z,11.08
2024-05-09T00:19:45.492Z,11.07
2024-05-09T00:19:57.539Z,11.06
2024-05-09T00:20:17.458Z,11.07
2024-05-09T00:20:37.988Z,11.10
2024-05-09T00:20:52.726Z,11.09
2024-05-09T00:21:09.492Z,11.10
2024-05-09T00:21:21.762Z,11.12
2024-05-09T00:21:33.828Z,11.12
2024-05-09T00:21:45.898Z,11.12
2024-05-09T00:21:57.975Z,11.12
2024-05-09T00:22:12.470Z,11.13
2024-05-09T00:22:24.513Z,11.12
2024-05-09T00:22:36.620Z,11.13
2024-05-09T00:22:48.814Z,11.13
2024-05-09T00:23:01.069Z,11.11
2024-05-09T00:23:14.182Z,11.13
2024-05-09T00:23:26.407Z,11.11
2024-05-09T00:23:38.596Z,11.10
2024-05-09T00:23:50.688Z,11.12
2024-05-09T00:24:02.800Z,11.12
2024-05-09T00:24:14.857Z,11.14
2024-05-09T00:24:26.917Z,11.16
2024-05-09T00:24:38.950Z,11.16
2024-05-09T00:24:50.998Z,11.14
2024-05-09T00:25:03.211Z,11.13
2024-05-09T00:25:15.262Z,11.13
2024-05-09T00:25:27.316Z,11.14
2024-05-09T00:25:39.562Z,11.14
2024-05-09T00:25:51.657Z,11.16
2024-05-09T00:26:03.992Z,11.15
2024-05-09T00:26:19.085Z,11.14
2024-05-09T00:26:31.225Z,11.12
2024-05-09T00:26:43.387Z,11.13
2024-05-09T00:26:55.499Z,11.11
2024-05-09T00:27:08.411Z,11.13
2024-05-09T00:27:21.064Z,11.12
2024-05-09T00:27:33.102Z,11.12
2024-05-09T00:27:45.128Z,11.12
2024-05-09T00:27:57.157Z,11.11
2024-05-09T00:28:09.428Z,11.12
2024-05-09T00:28:21.542Z,11.12
2024-05-09T00:28:33.577Z,11.10
2024-05-09T00:28:45.735Z,11.12
2024-05-09T00:28:57.876Z,11.10
2024-05-09T00:29:10.000Z,11.10
2024-05-09T00:29:22.251Z,11.11
2024-05-09T00:29:34.440Z,11.11
2024-05-09T00:29:46.576Z,11.08
2024-05-09T00:29:58.613Z,11.08
2024-05-09T00:30:17.436Z,11.07
2024-05-09T00:30:37.618Z,11.02
2024-05-09T00:30:49.790Z,11.04
2024-05-09T00:31:02.971Z,11.05
2024-05-09T00:31:15.038Z,11.06
2024-05-09T00:31:27.157Z,11.05
2024-05-09T00:31:39.219Z,11.07
2024-05-09T00:31:51.336Z,11.07
2024-05-09T00:32:03.851Z,11.07
2024-05-09T00:32:16.246Z,11.07
2024-05-09T00:32:28.463Z,11.06
2024-05-09T00:32:40.761Z,11.06
2024-05-09T00:32:53.100Z,11.06
2024-05-09T00:33:06.716Z,11.06
2024-05-09T00:33:20.260Z,11.07
2024-05-09T00:33:32.579Z,11.07
2024-05-09T00:33:44.770Z,11.07
2024-05-09T00:33:57.015Z,11.07
2024-05-09T00:34:09.306Z,11.06
2024-05-09T00:34:21.636Z,11.07
2024-05-09T00:34:33.766Z,11.06
2024-05-09T00:34:45.999Z,11.06
2024-05-09T00:34:58.169Z,11.06
2024-05-09T00:35:10.377Z,11.03
2024-05-09T00:35:22.615Z,11.04
2024-05-09T00:35:35.189Z,11.04
2024-05-09T00:35:47.460Z,11.05
2024-05-09T00:35:59.506Z,11.03
2024-05-09T00:36:11.560Z,11.03
2024-05-09T00:36:23.607Z,11.04
2024-05-09T00:36:35.680Z,11.03
2024-05-09T00:36:47.728Z,11.04
2024-05-09T00:36:59.799Z,11.05
2024-05-09T00:37:11.891Z,11.04
2024-05-09T00:37:23.990Z,11.03
2024-05-09T00:37:36.046Z,10.99
2024-05-09T00:37:48.198Z,11.00
2024-05-09T00:38:00.648Z,11.01
2024-05-09T00:38:13.123Z,11.00
2024-05-09T00:38:25.229Z,10.98
2024-05-09T00:38:37.424Z,11.00
2024-05-09T00:38:49.498Z,11.03
2024-05-09T00:39:01.626Z,11.03
2024-05-09T00:39:13.744Z,11.02
2024-05-09T00:39:25.849Z,11.04
2024-05-09T00:39:37.955Z,11.02
2024-05-09T00:39:49.988Z,11.00
2024-05-09T00:40:02.142Z,11.03
2024-05-09T00:40:22.454Z,11.02
2024-05-09T00:40:43.636Z,10.98
2024-05-09T00:40:56.007Z,10.94
2024-05-09T00:41:08.133Z,10.94
2024-05-09T00:41:20.253Z,10.90
2024-05-09T00:41:32.345Z,10.93
2024-05-09T00:41:44.500Z,10.93
2024-05-09T00:41:56.603Z,10.93
2024-05-09T00:42:08.663Z,10.93
2024-05-09T00:42:20.729Z,10.94
2024-05-09T00:42:37.702Z,10.90
2024-05-09T00:42:49.748Z,10.88
2024-05-09T00:43:01.818Z,10.89
2024-05-09T00:43:15.454Z,10.88
2024-05-09T00:43:27.632Z,10.91
2024-05-09T00:43:40.327Z,10.92
2024-05-09T00:43:52.421Z,10.91
2024-05-09T00:44:04.663Z,10.89
2024-05-09T00:44:16.859Z,10.90
2024-05-09T00:44:28.989Z,10.89
2024-05-09T00:44:41.195Z,10.90
2024-05-09T00:44:53.252Z,10.91
2024-05-09T00:45:06.783Z,10.87
2024-05-09T00:45:18.898Z,10.87
2024-05-09T00:45:30.945Z,10.86
2024-05-09T00:45:44.000Z,10.86
2024-05-09T00:45:57.387Z,10.84
2024-05-09T00:46:09.978Z,10.86
2024-05-09T00:46:22.074Z,10.84
2024-05-09T00:46:34.435Z,10.82
2024-05-09T00:46:46.512Z,10.81
2024-05-09T00:46:59.443Z,10.83
2024-05-09T00:47:12.221Z,10.82
2024-05-09T00:47:24.830Z,10.82
2024-05-09T00:47:37.174Z,10.80
2024-05-09T00:47:49.638Z,10.81
2024-05-09T00:48:06.761Z,10.78
2024-05-09T00:48:21.484Z,10.80
2024-05-09T00:48:34.943Z,10.78
2024-05-09T00:48:47.401Z,10.77
2024-05-09T00:48:59.744Z,10.82
2024-05-09T00:49:12.860Z,10.81
2024-05-09T00:49:26.132Z,10.81
2024-05-09T00:49:38.559Z,10.81
2024-05-09T00:49:51.245Z,10.81
2024-05-09T00:50:05.529Z,10.82
2024-05-09T00:50:29.339Z,10.83
2024-05-09T00:50:46.741Z,10.82
2024-05-09T00:50:59.445Z,10.83
2024-05-09T00:51:11.691Z,10.83
2024-05-09T00:51:23.909Z,10.82
2024-05-09T00:51:36.202Z,10.81
2024-05-09T00:51:48.812Z,10.81
2024-05-09T00:52:02.172Z,10.78
2024-05-09T00:52:14.207Z,10.79
2024-05-09T00:52:27.629Z,10.82
2024-05-09T00:52:40.507Z,10.78
2024-05-09T00:52:52.701Z,10.78
2024-05-09T00:53:09.952Z,10.76
2024-05-09T00:53:22.160Z,10.75
2024-05-09T00:53:34.447Z,10.73
2024-05-09T00:53:47.743Z,10.71
2024-05-09T00:53:59.972Z,10.69
2024-05-09T00:54:12.268Z,10.70
2024-05-09T00:54:25.050Z,10.69
2024-05-09T00:54:37.116Z,10.69
2024-05-09T00:54:49.215Z,10.68
2024-05-09T00:55:01.461Z,10.69
2024-05-09T00:55:15.597Z,10.68
2024-05-09T00:55:28.111Z,10.67
2024-05-09T00:55:40.855Z,10.66
2024-05-09T00:55:55.865Z,10.64
2024-05-09T00:56:10.558Z,10.62
2024-05-09T00:56:22.796Z,10.61
2024-05-09T00:56:35.565Z,10.60
2024-05-09T00:56:49.481Z,10.62
2024-05-09T00:57:03.568Z,10.60
2024-05-09T00:57:17.207Z,10.58
2024-05-09T00:57:29.314Z,10.61
2024-05-09T00:57:42.147Z,10.63
2024-05-09T00:57:54.698Z,10.64
2024-05-09T00:58:09.111Z,10.63
2024-05-09T00:58:24.329Z,10.62
2024-05-09T00:58:36.719Z,10.65
2024-05-09T00:58:50.161Z,10.66
2024-05-09T00:59:02.869Z,10.67
2024-05-09T00:59:15.797Z,10.68
2024-05-09T00:59:30.114Z,10.66
2024-05-09T00:59:42.300Z,10.64
2024-05-09T00:59:55.474Z,10.64
2024-05-09T01:00:22.384Z,10.64
2024-05-09T01:00:43.304Z,10.62
2024-05-09T01:00:57.686Z,10.63
2024-05-09T01:01:10.566Z,10.62
2024-05-09T01:01:24.706Z,10.62
2024-05-09T01:01:37.115Z,10.63
2024-05-09T01:01:49.595Z,10.63
2024-05-09T01:02:01.934Z,10.62
2024-05-09T01:02:15.940Z,10.64
2024-05-09T01:02:30.881Z,10.64
2024-05-09T01:02:43.221Z,10.62
2024-05-09T01:02:55.507Z,10.60
2024-05-09T01:03:09.023Z,10.59
2024-05-09T01:03:23.123Z,10.59
2024-05-09T01:03:35.559Z,10.55
2024-05-09T01:03:51.300Z,10.54
2024-05-09T01:04:03.766Z,10.53
2024-05-09T01:04:16.959Z,10.55
2024-05-09T01:04:29.032Z,10.56
2024-05-09T01:04:41.296Z,10.55
2024-05-09T01:04:53.526Z,10.54
2024-05-09T01:05:06.263Z,10.54
2024-05-09T01:05:18.416Z,10.53
2024-05-09T01:05:32.060Z,10.50
2024-05-09T01:05:44.943Z,10.51
2024-05-09T01:05:57.058Z,10.53
2024-05-09T01:06:09.128Z,10.53
2024-05-09T01:06:21.589Z,10.54
2024-05-09T01:06:33.657Z,10.53
2024-05-09T01:06:45.805Z,10.51
2024-05-09T01:06:57.879Z,10.49
2024-05-09T01:07:11.116Z,10.50
2024-05-09T01:07:24.176Z,10.49
2024-05-09T01:07:36.223Z,10.48
2024-05-09T01:07:48.380Z,10.48
2024-05-09T01:08:00.622Z,10.46
2024-05-09T01:08:13.332Z,10.43
2024-05-09T01:08:26.265Z,10.45
2024-05-09T01:08:38.644Z,10.46
2024-05-09T01:08:51.053Z,10.46
2024-05-09T01:09:03.524Z,10.46
2024-05-09T01:09:15.650Z,10.43
2024-05-09T01:09:27.741Z,10.40
2024-05-09T01:09:39.825Z,10.41
2024-05-09T01:09:51.870Z,10.42
2024-05-09T01:10:05.538Z,10.44
2024-05-09T01:10:27.563Z,10.44
2024-05-09T01:10:46.124Z,10.44
2024-05-09T01:11:00.243Z,10.44
2024-05-09T01:11:12.519Z,10.45
2024-05-09T01:11:24.736Z,10.43
2024-05-09T01:11:38.712Z,10.41
2024-05-09T01:11:51.009Z,10.44
2024-05-09T01:12:03.623Z,10.42
2024-05-09T01:12:15.845Z,10.44
2024-05-09T01:12:28.110Z,10.45
2024-05-09T01:12:40.353Z,10.46
2024-05-09T01:12:52.575Z,10.42
2024-05-09T01:13:05.691Z,10.42
2024-05-09T01:13:17.988Z,10.42
2024-05-09T01:13:30.064Z,10.42
2024-05-09T01:13:42.114Z,10.38
2024-05-09T01:13:54.230Z,10.38
2024-05-09T01:14:06.336Z,10.36
2024-05-09T01:14:18.563Z,10.36
2024-05-09T01:14:30.695Z,10.39
2024-05-09T01:14:42.772Z,10.38
2024-05-09T01:14:54.807Z,10.36
2024-05-09T01:15:06.957Z,10.36
2024-05-09T01:15:19.004Z,10.39
2024-05-09T01:15:31.138Z,10.37
2024-05-09T01:15:43.449Z,10.35
2024-05-09T01:15:55.666Z,10.35
2024-05-09T01:16:07.852Z,10.34
2024-05-09T01:16:19.918Z,10.35
2024-05-09T01:16:32.589Z,10.36
2024-05-09T01:16:44.930Z,10.37
2024-05-09T01:16:57.114Z,10.37
2024-05-09T01:17:09.264Z,10.37
2024-05-09T01:17:21.517Z,10.35
2024-05-09T01:17:34.325Z,10.34
2024-05-09T01:17:46.860Z,10.34
2024-05-09T01:18:03.255Z,10.35
2024-05-09T01:18:15.985Z,10.36
2024-05-09T01:18:28.724Z,10.35
2024-05-09T01:18:41.024Z,10.36
2024-05-09T01:18:53.364Z,10.36
2024-05-09T01:19:13.838Z,10.36
2024-05-09T01:19:29.282Z,10.38
2024-05-09T01:19:42.104Z,10.39
2024-05-09T01:19:54.258Z,10.36
2024-05-09T01:20:10.649Z,10.39
2024-05-09T01:20:36.548Z,10.41
2024-05-09T01:20:53.571Z,10.42
2024-05-09T01:21:08.282Z,10.43
2024-05-09T01:21:20.401Z,10.41
2024-05-09T01:21:32.505Z,10.43
2024-05-09T01:21:44.630Z,10.39
2024-05-09T01:21:56.736Z,10.39
2024-05-09T01:22:08.846Z,10.38
2024-05-09T01:22:22.751Z,10.37
2024-05-09T01:22:38.100Z,10.33
2024-05-09T01:22:52.349Z,10.33
2024-05-09T01:23:07.664Z,10.32
2024-05-09T01:23:19.898Z,10.29
2024-05-09T01:23:32.160Z,10.30
2024-05-09T01:23:44.378Z,10.31
2024-05-09T01:23:56.437Z,10.28
2024-05-09T01:24:08.487Z,10.29
2024-05-09T01:24:20.568Z,10.30
2024-05-09T01:24:35.638Z,10.27
2024-05-09T01:24:47.811Z,10.24
2024-05-09T01:24:59.866Z,10.25
2024-05-09T01:25:11.921Z,10.27
2024-05-09T01:25:23.982Z,10.28
2024-05-09T01:25:36.055Z,10.25
2024-05-09T01:25:48.266Z,10.25
2024-05-09T01:26:00.408Z,10.22
2024-05-09T01:26:12.668Z,10.22
2024-05-09T01:26:24.758Z,10.23
2024-05-09T01:26:37.009Z,10.24
2024-05-09T01:26:49.316Z,10.26
2024-05-09T01:27:01.406Z,10.24
2024-05-09T01:27:13.462Z,10.25
2024-05-09T01:27:25.538Z,10.26
2024-05-09T01:27:37.769Z,10.28
2024-05-09T01:27:49.835Z,10.26
2024-05-09T01:28:02.136Z,10.29
2024-05-09T01:28:14.991Z,10.27
2024-05-09T01:28:27.119Z,10.26
2024-05-09T01:28:39.344Z,10.25
2024-05-09T01:28:51.810Z,10.27
2024-05-09T01:29:03.976Z,10.26
2024-05-09T01:29:16.161Z,10.27
2024-05-09T01:29:28.373Z,10.29
2024-05-09T01:29:40.471Z,10.27
2024-05-09T01:29:52.525Z,10.29
2024-05-09T01:30:09.168Z,10.28
2024-05-09T01:30:31.163Z,10.25
2024-05-09T01:30:46.185Z,10.23
2024-05-09T01:30:58.267Z,10.22
2024-05-09T01:31:15.764Z,10.22
2024-05-09T01:31:27.845Z,10.23
2024-05-09T01:31:39.960Z,10.25
2024-05-09T01:31:58.940Z,10.26
2024-05-09T01:32:11.304Z,10.26
2024-05-09T01:32:23.720Z,10.29
2024-05-09T01:32:35.980Z,10.26
2024-05-09T01:32:48.295Z,10.27
2024-05-09T01:33:00.697Z,10.28
2024-05-09T01:33:13.555Z,10.29
2024-05-09T01:33:26.098Z,10.29
2024-05-09T01:33:38.637Z,10.30
2024-05-09T01:33:51.191Z,10.30
2024-05-09T01:34:03.422Z,10.29
2024-05-09T01:34:15.605Z,10.28
2024-05-09T01:34:27.745Z,10.29
2024-05-09T01:34:39.788Z,10.31
2024-05-09T01:34:51.895Z,10.31
2024-05-09T01:35:04.318Z,10.31
2024-05-09T01:35:16.558Z,10.28
2024-05-09T01:35:28.890Z,10.27
2024-05-09T01:35:42.542Z,10.24
2024-05-09T01:35:55.243Z,10.24
2024-05-09T01:36:07.383Z,10.23
2024-05-09T01:36:19.443Z,10.22
2024-05-09T01:36:31.877Z,10.23
2024-05-09T01:36:44.048Z,10.22
2024-05-09T01:36:56.098Z,10.21
2024-05-09T01:37:08.148Z,10.18
2024-05-09T01:37:20.226Z,10.21
2024-05-09T01:37:32.262Z,10.20
2024-05-09T01:37:44.379Z,10.17
2024-05-09T01:37:56.524Z,10.16
2024-05-09T01:38:09.674Z,10.16
2024-05-09T01:38:21.899Z,10.16
2024-05-09T01:38:34.065Z,10.17
2024-05-09T01:38:46.130Z,10.15
2024-05-09T01:38:58.454Z,10.15
2024-05-09T01:39:10.505Z,10.14
2024-05-09T01:39:22.709Z,10.14
2024-05-09T01:39:35.007Z,10.17
2024-05-09T01:39:47.096Z,10.18
2024-05-09T01:39:59.185Z,10.16
2024-05-09T01:40:15.293Z,10.16
2024-05-09T01:40:37.338Z,10.18
2024-05-09T01:40:51.927Z,10.17
2024-05-09T01:41:04.508Z,10.14
2024-05-09T01:41:16.615Z,10.13
2024-05-09T01:41:28.803Z,10.14
2024-05-09T01:41:40.883Z,10.14
2024-05-09T01:41:52.969Z,10.16
2024-05-09T01:42:05.495Z,10.16
2024-05-09T01:42:17.590Z,10.17
2024-05-09T01:42:29.641Z,10.15
2024-05-09T01:42:41.779Z,10.15
2024-05-09T01:42:53.901Z,10.16
2024-05-09T01:43:06.540Z,10.15
2024-05-09T01:43:18.682Z,10.13
2024-05-09T01:43:30.728Z,10.13
2024-05-09T01:43:42.897Z,10.14
2024-05-09T01:43:55.092Z,10.16
2024-05-09T01:44:07.207Z,10.14
2024-05-09T01:44:19.326Z,10.15
2024-05-09T01:44:31.430Z,10.13
2024-05-09T01:44:43.639Z,10.13
2024-05-09T01:44:58.365Z,10.14
2024-05-09T01:45:11.167Z,10.12
2024-05-09T01:45:23.227Z,10.14
2024-05-09T01:45:35.298Z,10.12
2024-05-09T01:45:47.410Z,10.11
2024-05-09T01:45:59.488Z,10.13
2024-05-09T01:46:19.320Z,10.14
2024-05-09T01:46:31.403Z,10.13
2024-05-09T01:46:43.478Z,10.14
2024-05-09T01:46:55.605Z,10.10
2024-05-09T01:47:07.721Z,10.12
2024-05-09T01:47:19.924Z,10.07
2024-05-09T01:47:32.196Z,10.06
2024-05-09T01:47:44.530Z,10.07
2024-05-09T01:47:56.836Z,10.05
2024-05-09T01:48:10.448Z,10.05
2024-05-09T01:48:23.409Z,10.06
2024-05-09T01:48:35.674Z,10.05
2024-05-09T01:48:47.811Z,10.04
2024-05-09T01:49:00.670Z,10.06
2024-05-09T01:49:12.971Z,10.02
2024-05-09T01:49:25.343Z,10.03
2024-05-09T01:49:37.655Z,10.04
2024-05-09T01:49:49.913Z,10.04
2024-05-09T01:50:02.317Z,10.04
2024-05-09T01:50:37.747Z,10.07
2024-05-09T01:50:53.188Z,10.08
2024-05-09T01:51:05.400Z,10.06
2024-05-09T01:51:17.536Z,10.07
2024-05-09T01:51:29.656Z,10.08
2024-05-09T01:51:41.734Z,10.07
2024-05-09T01:51:53.779Z,10.08
2024-05-09T01:52:05.830Z,10.06
2024-05-09T01:52:17.875Z,10.08
2024-05-09T01:52:29.974Z,10.09
2024-05-09T01:52:42.028Z,10.07
2024-05-09T01:52:54.122Z,10.07
2024-05-09T01:53:06.267Z,10.05
2024-05-09T01:53:18.406Z,10.07
2024-05-09T01:53:30.593Z,10.09
2024-05-09T01:53:43.972Z,10.10
2024-05-09T01:53:56.143Z,10.10
2024-05-09T01:54:08.225Z,10.12
2024-05-09T01:54:20.283Z,10.13
2024-05-09T01:54:32.331Z,10.11
2024-05-09T01:54:44.407Z,10.08
2024-05-09T01:54:56.467Z,10.09
2024-05-09T01:55:08.564Z,10.08
2024-05-09T01:55:20.696Z,10.07
2024-05-09T01:55:32.748Z,10.04
2024-05-09T01:55:44.956Z,10.03
2024-05-09T01:55:57.115Z,10.00
2024-05-09T01:56:09.916Z,10.02
2024-05-09T01:56:22.124Z,10.02
2024-05-09T01:56:34.328Z,10.03
2024-05-09T01:56:46.416Z,10.03
2024-05-09T01:56:58.462Z,10.05
2024-05-09T01:57:10.521Z,10.04
2024-05-09T01:57:22.667Z,10.04
2024-05-09T01:57:34.763Z,10.05
2024-05-09T01:57:46.802Z,10.06
2024-05-09T01:57:58.842Z,10.06
2024-05-09T01:58:10.928Z,10.06
2024-05-09T01:58:22.995Z,10.05
2024-05-09T01:58:35.058Z,10.02
2024-05-09T01:58:47.156Z,10.03
2024-05-09T01:58:59.469Z,10.00
2024-05-09T01:59:11.595Z,10.03
2024-05-09T01:59:23.769Z,10.03
2024-05-09T01:59:35.873Z,10.02
2024-05-09T01:59:47.987Z,10.00
2024-05-09T02:00:01.445Z,9.98
2024-05-09T02:00:18.824Z,9.98
2024-05-09T02:00:42.090Z,9.98
2024-05-09T02:00:55.336Z,9.97
2024-05-09T02:01:07.470Z,9.93
2024-05-09T02:01:19.660Z,9.90
2024-05-09T02:01:55.290Z,9.90
2024-05-09T02:02:04.232Z,9.90
2024-05-09T02:02:16.698Z,9.91
2024-05-09T02:02:28.937Z,9.89
2024-05-09T02:02:41.100Z,9.90
2024-05-09T02:02:53.958Z,9.89
2024-05-09T02:03:10.053Z,9.92
2024-05-09T02:03:23.112Z,9.91
2024-05-09T02:03:35.407Z,9.92
2024-05-09T02:03:47.983Z,9.92
2024-05-09T02:04:00.340Z,9.94
2024-05-09T02:04:12.806Z,9.91
2024-05-09T02:04:25.117Z,9.93
2024-05-09T02:04:37.363Z,9.94
2024-05-09T02:04:50.060Z,9.92
2024-05-09T02:05:02.392Z,9.92
2024-05-09T02:05:14.698Z,9.92
2024-05-09T02:05:26.906Z,9.93
2024-05-09T02:05:39.219Z,9.93
2024-05-09T02:05:51.469Z,9.95
2024-05-09T02:06:03.896Z,9.94
2024-05-09T02:06:16.064Z,9.94
2024-05-09T02:06:28.133Z,9.95
2024-05-09T02:06:41.588Z,9.91
2024-05-09T02:06:53.626Z,9.93
2024-05-09T02:07:05.683Z,9.92
2024-05-09T02:07:17.802Z,9.93
2024-05-09T02:07:30.680Z,9.96
2024-05-09T02:07:42.845Z,9.98
2024-05-09T02:07:54.931Z,9.99
2024-05-09T02:08:07.521Z,10.03
2024-05-09T02:08:21.755Z,10.04
2024-05-09T02:08:34.175Z,10.04
2024-05-09T02:08:46.373Z,10.04
2024-05-09T02:08:58.444Z,10.04
2024-05-09T02:09:10.515Z,10.04
2024-05-09T02:09:22.593Z,9.99
2024-05-09T02:09:34.719Z,9.99
2024-05-09T02:09:46.761Z,9.95
2024-05-09T02:09:58.871Z,9.95
2024-05-09T02:10:16.571Z,9.93
2024-05-09T02:10:35.139Z,9.93
2024-05-09T02:10:49.325Z,9.91
2024-05-09T02:11:02.037Z,9.92
2024-05-09T02:11:14.384Z,9.90
2024-05-09T02:11:26.557Z,9.88
2024-05-09T02:11:47.559Z,9.87
2024-05-09T02:11:59.759Z,9.85
2024-05-09T02:12:12.101Z,9.86
2024-05-09T02:12:24.390Z,9.86
2024-05-09T02:12:36.575Z,9.86
2024-05-09T02:12:48.628Z,9.86
2024-05-09T02:13:01.034Z,9.87
2024-05-09T02:13:13.642Z,9.86
2024-05-09T02:13:25.712Z,9.88
2024-05-09T02:13:37.798Z,9.87
2024-05-09T02:13:49.838Z,9.88
2024-05-09T02:14:01.949Z,9.89
2024-05-09T02:14:14.285Z,9.89
2024-05-09T02:14:26.510Z,9.91
2024-05-09T02:14:38.772Z,9.91
2024-05-09T02:14:51.611Z,9.90
2024-05-09T02:15:03.828Z,9.93
2024-05-09T02:15:16.175Z,9.92
2024-05-09T02:15:28.293Z,9.88
2024-05-09T02:15:40.394Z,9.90
2024-05-09T02:15:52.569Z,9.90
2024-05-09T02:16:05.049Z,9.88
2024-05-09T02:16:17.102Z,9.88
2024-05-09T02:16:29.200Z,9.86
2024-05-09T02:16:41.244Z,9.84
2024-05-09T02:16:53.481Z,9.85
2024-05-09T02:17:05.559Z,9.83
2024-05-09T02:17:17.700Z,9.83
2024-05-09T02:17:29.918Z,9.85
2024-05-09T02:17:42.152Z,9.85
2024-05-09T02:17:54.578Z,9.84
2024-05-09T02:18:08.193Z,9.84
2024-05-09T02:18:20.846Z,9.85
2024-05-09T02:18:33.498Z,9.83
2024-05-09T02:18:45.702Z,9.82
2024-05-09T02:18:57.960Z,9.81
2024-05-09T02:19:10.240Z,9.80
2024-05-09T02:19:22.673Z,9.78
2024-05-09T02:19:35.023Z,9.81
2024-05-09T02:19:47.147Z,9.82
2024-05-09T02:19:59.269Z,9.84
2024-05-09T02:20:18.783Z,9.80
2024-05-09T02:20:40.911Z,9.81
2024-05-09T02:20:53.267Z,9.82
2024-05-09T02:21:05.535Z,9.83
2024-05-09T02:21:17.662Z,9.82
2024-05-09T02:21:34.070Z,9.84
2024-05-09T02:21:46.143Z,9.85
2024-05-09T02:21:58.202Z,9.84
2024-05-09T02:22:10.301Z,9.80
2024-05-09T02:22:22.381Z,9.76
2024-05-09T02:22:34.451Z,9.75
2024-05-09T02:22:46.546Z,9.75
2024-05-09T02:22:58.610Z,9.76
2024-05-09T02:23:10.844Z,9.78
2024-05-09T02:23:23.077Z,9.76
2024-05-09T02:23:35.238Z,9.73
2024-05-09T02:23:47.314Z,9.75
2024-05-09T02:23:59.539Z,9.79
2024-05-09T02:24:11.621Z,9.81
2024-05-09T02:24:23.709Z,9.81
2024-05-09T02:24:35.797Z,9.81
2024-05-09T02:24:47.833Z,9.80
2024-05-09T02:24:59.927Z,9.82
2024-05-09T02:25:12.617Z,9.83
2024-05-09T02:25:26.955Z,9.82
2024-05-09T02:25:39.772Z,9.85
2024-05-09T02:25:51.854Z,9.85
2024-05-09T02:26:04.107Z,9.85
2024-05-09T02:26:16.306Z,9.81
2024-05-09T02:26:28.456Z,9.81
2024-05-09T02:26:40.552Z,9.80
2024-05-09T02:26:52.652Z,9.80
2024-05-09T02:27:04.885Z,9.75
2024-05-09T02:27:16.940Z,9.76
2024-05-09T02:27:29.070Z,9.74
2024-05-09T02:27:41.953Z,9.73
2024-05-09T02:27:54.028Z,9.74
2024-05-09T02:28:06.333Z,9.74
2024-05-09T02:28:21.030Z,9.73
2024-05-09T02:28:33.213Z,9.74
2024-05-09T02:28:45.288Z,9.75
2024-05-09T02:28:57.467Z,9.75
2024-05-09T02:29:09.668Z,9.75
2024-05-09T02:29:21.776Z,9.75
2024-05-09T02:29:34.716Z,9.73
2024-05-09T02:29:46.761Z,9.73
2024-05-09T02:29:59.047Z,9.75
2024-05-09T02:30:18.767Z,9.76
2024-05-09T02:30:41.111Z,9.74
2024-05-09T02:30:54.325Z,9.76
2024-05-09T02:31:06.463Z,9.74
2024-05-09T02:31:18.526Z,9.73
2024-05-09T02:31:30.562Z,9.72
2024-05-09T02:31:42.672Z,9.71
2024-05-09T02:31:54.871Z,9.69
2024-05-09T02:32:07.216Z,9.70
2024-05-09T02:32:19.410Z,9.70
2024-05-09T02:32:31.748Z,9.71
2024-05-09T02:32:44.023Z,9.70
2024-05-09T02:32:56.224Z,9.67
2024-05-09T02:33:10.386Z,9.65
2024-05-09T02:33:24.392Z,9.65
2024-05-09T02:33:36.760Z,9.69
2024-05-09T02:33:49.304Z,9.69
2024-05-09T02:34:01.897Z,9.68
2024-05-09T02:34:14.223Z,9.69
2024-05-09T02:34:26.436Z,9.69
2024-05-09T02:34:38.674Z,9.71
2024-05-09T02:34:50.767Z,9.71
2024-05-09T02:35:02.816Z,9.69
2024-05-09T02:35:15.069Z,9.71
2024-05-09T02:35:27.339Z,9.73
2024-05-09T02:35:39.806Z,9.73
2024-05-09T02:35:51.929Z,9.71
2024-05-09T02:36:04.308Z,9.72
2024-05-09T02:36:16.359Z,9.73
2024-05-09T02:36:28.407Z,9.73
2024-05-09T02:36:40.499Z,9.72
2024-05-09T02:36:56.014Z,9.74
2024-05-09T02:37:08.067Z,9.75
2024-05-09T02:37:20.113Z,9.75
2024-05-09T02:37:32.168Z,9.74
2024-05-09T02:37:44.264Z,9.76
2024-05-09T02:37:56.403Z,9.78
2024-05-09T02:38:12.204Z,9.79
2024-05-09T02:38:24.631Z,9.77
2024-05-09T02:38:37.351Z,9.78
2024-05-09T02:38:49.505Z,9.80
2024-05-09T02:39:01.666Z,9.78
2024-05-09T02:39:13.705Z,9.74
2024-05-09T02:39:28.567Z,9.76
2024-05-09T02:39:40.610Z,9.71
2024-05-09T02:39:52.641Z,9.72
2024-05-09T02:40:05.801Z,9.75
2024-05-09T02:40:28.919Z,9.76
2024-05-09T02:40:48.143Z,9.76
2024-05-09T02:41:00.268Z,9.79
2024-05-09T02:41:12.468Z,9.79
2024-05-09T02:41:24.614Z,9.80
2024-05-09T02:41:36.725Z,9.82
2024-05-09T02:41:48.787Z,9.76
2024-05-09T02:42:00.829Z,9.75
2024-05-09T02:42:12.903Z,9.69
2024-05-09T02:42:25.056Z,9.68
2024-05-09T02:42:37.132Z,9.69
2024-05-09T02:42:49.276Z,9.69
2024-05-09T02:43:01.408Z,9.70
2024-05-09T02:43:13.509Z,9.70
2024-05-09T02:43:25.549Z,9.70
2024-05-09T02:43:37.615Z,9.67
2024-05-09T02:43:49.665Z,9.64
2024-05-09T02:44:01.779Z,9.65
2024-05-09T02:44:13.926Z,9.64
2024-05-09T02:44:26.051Z,9.62
2024-05-09T02:44:38.230Z,9.61
2024-05-09T02:44:50.333Z,9.60
2024-05-09T02:45:02.383Z,9.59
2024-05-09T02:45:14.436Z,9.59
2024-05-09T02:45:26.479Z,9.59
2024-05-09T02:45:39.833Z,9.58
2024-05-09T02:45:52.206Z,9.57
2024-05-09T02:46:04.470Z,9.55
2024-05-09T02:46:16.496Z,9.54
2024-05-09T02:46:28.534Z,9.49
2024-05-09T02:46:40.566Z,9.46
2024-05-09T02:46:52.627Z,9.45
2024-05-09T02:47:04.845Z,9.45
2024-05-09T02:47:17.064Z,9.45
2024-05-09T02:47:29.353Z,9.43
2024-05-09T02:47:41.635Z,9.43
2024-05-09T02:47:54.285Z,9.43